• Join FlightAware (Why Join?)
  • Login
  • US Flag 
Gobble Gobble! 
03:06PM EST


 

Airport Tracker/Info


-or-


 

Live Flight TrackerFlight Track Log ✈ JZA8247 ✈ 05-Jul-2013 ✈ CYCG - CYVR

Flight Track Log - Related Links

Times and Time Zones

All times are in EDT time to prevent confusion due to time zone crossing. See the JZA8247 flight status page for this flight to view local times or setup timezone preferences in your user account.

Time Position Orientation Groundspeed Altitude Reporting Facility
EDT Latitude Longitude Course Direction KTS MPH feet Rate Location/Type
11:46AM 49.5000 -117.7322 270° West  Level FlightAware Approximate
11:47AM 49.4969 -117.8258 267° West  Level Estimated
11:47AM 49.3333 -118.0000 267° West 200 230 10,000  Level Vancouver Center
11:48AM 49.4938 -117.9193 267° West  Level Estimated
11:48AM 49.3500 -118.0833 287° West 190 219 11,500  Level Vancouver Center
11:49AM 49.4906 -118.0129 267° West  Level Estimated
11:49AM 49.3500 -118.1833 270° West 190 219 12,700  Level Vancouver Center
11:50AM 49.4873 -118.1064 267° West  Level Estimated
11:50AM 49.3500 -118.2667 270° West 190 219 14,000  Level Vancouver Center
11:51AM 49.4839 -118.1999 267° West  Level Estimated
11:51AM 49.3500 -118.3333 270° West 190 219 15,100  Level Vancouver Center
11:52AM 49.4805 -118.2934 267° West  Level Estimated
11:52AM 49.3667 -118.4167 287° West 190 219 16,400  Level Vancouver Center
11:53AM 49.4770 -118.3869 267° West  Level Estimated
11:53AM 49.3667 -118.4833 270° West 180 207 17,500  Level Vancouver Center
11:54AM 49.3667 -118.5667 270° West 180 207 18,400 900 Climbing Vancouver Center
11:55AM 49.3667 -118.6500 270° West 180 207 19,300 900 Climbing Vancouver Center
11:56AM 49.3833 -118.7167 291° West 190 219 20,200 900 Climbing Vancouver Center
11:57AM 49.3833 -118.8167 270° West 190 219 21,100 900 Climbing Vancouver Center
11:58AM 49.3833 -118.9000 270° West 190 219 22,000 840 Climbing Vancouver Center
11:59AM 49.3833 -118.9833 270° West 190 219 22,800 720 Climbing Vancouver Center
12:00PM 49.3833 -119.0500 270° West 180 207 23,500 600 Climbing Vancouver Center
12:01PM 49.4000 -119.1333 287° West 190 219 24,000 240 Climbing Vancouver Center
12:02PM 49.4000 -119.2000 270° West 210 242 24,000  Level Vancouver Center
12:03PM 49.4167 -119.3000 284° West 230 265 24,000  Level Vancouver Center
12:04PM 49.4167 -119.4167 270° West 240 276 24,000  Level Vancouver Center
12:05PM 49.4167 -119.5167 270° West 240 276 24,000  Level Vancouver Center
12:06PM 49.4333 -119.6333 282° West 250 288 24,000  Level Vancouver Center
12:07PM 49.4333 -119.7500 270° West 250 288 24,000  Level Vancouver Center
12:08PM 49.4333 -119.8500 270° West 250 288 24,000  Level Vancouver Center
12:09PM 49.4333 -119.9500 270° West 250 288 24,000  Level Vancouver Center
12:10PM 49.4500 -120.0500 284° West 260 299 24,000  Level Vancouver Center
12:11PM 49.4500 -120.1833 270° West 260 299 24,000  Level Vancouver Center
12:12PM 49.4500 -120.2833 270° West 260 299 24,000  Level Vancouver Center
12:13PM 49.4500 -120.3833 270° West 260 299 24,000  Level Vancouver Center
12:14PM 49.4500 -120.4833 270° West 260 299 24,000  Level Vancouver Center
12:15PM 49.4667 -120.6167 281° West 260 299 24,000  Level Vancouver Center
12:16PM 49.4667 -120.7167 270° West 260 299 24,000  Level Vancouver Center
12:17PM 49.4667 -120.8167 270° West 250 288 24,000  Level Vancouver Center
12:18PM 49.4667 -120.9500 270° West 260 299 24,000  Level Vancouver Center
12:19PM 49.4667 -121.0500 270° West 250 288 24,000  Level Vancouver Center
12:20PM 49.4833 -121.1500 284° West 250 288 24,000 -300 Level Vancouver Center
12:21PM 49.4833 -121.2500 270° West 250 288 23,500 -900 Descending Vancouver Center
12:22PM 49.4667 -121.3833 259° West 280 322 22,200 -1,320 Descending Vancouver Center
12:23PM 49.4667 -121.5167 270° West 290 334 20,900 -1,260 Descending Vancouver Center
12:24PM 49.4500 -121.6167 256° West 290 334 19,700 -1,320 Descending Vancouver Center
12:25PM 49.4333 -121.7500 259° West 280 322 18,300 -1,320 Descending Vancouver Center
12:26PM 49.4167 -121.8667 258° West 280 322 17,100 -1,260 Descending Vancouver Center
12:27PM 49.4167 -121.9833 270° West 280 322 15,800 -1,260 Descending Vancouver Center
12:28PM 49.4167 -122.0833 270° West 280 322 14,700 -1,260 Descending Vancouver Center
12:29PM 49.4000 -122.2167 259° West 280 322 13,400 -1,320 Descending Vancouver Center
12:30PM 49.3833 -122.3167 256° West 270 311 12,100 -1,500 Descending Vancouver Center
12:31PM 49.3500 -122.4333 246° West 280 322 10,500 -1,500 Descending Vancouver Center
12:32PM 49.3000 -122.5167 227° Southwest 270 311 9,100 -960 Descending Vancouver Center
12:33PM 49.2667 -122.6167 243° Southwest 270 311 8,600 -1,200 Descending Vancouver Center
12:34PM 49.2333 -122.7333 246° West 270 311 6,700 -1,800 Descending Vancouver Center
12:35PM 49.2000 -122.8333 243° Southwest 260 299 5,000 -1,680 Descending Vancouver Center
12:36PM 49.1667 -122.9000 233° Southwest 220 253 3,400 -1,380 Descending Vancouver Center
12:37PM 49.1667 -122.9833 270° West 190 219 2,300 -1,140 Descending Vancouver Center